Terminal Aerodrome Forecast
Issued by NWS Blacksburg, VA

Home | Current Version | Previous Version | Text Only | Print | Product List | Glossary On
Versions: 1 2 3 4 5 6 7 8 9 10 11 12 13 14 15 16 17 18 19 20 21 22 23 24 25 26 27 28
000
FTUS41 KRNK 182340
TAFDAN
TAF
KDAN 182340Z 1900/1924 05003KT P6SM OVC080
     FM190400 05004KT P6SM OVC050
     FM190700 04005KT 6SM BR OVC035
     FM190800 04006KT 5SM BR OVC025
     FM191400 06008KT P6SM OVC028=

USA.gov is the U.S. government's official web portal to all federal, state and local government web resources and services.